ESPA

Luleå Airport

Luleå, Sweden
METAR ESPA 190850Z 11005KT 9999 -DZ BKN005 BKN010 12/11 Q0999
Observed Flight Rules
Sep-19 @ 08:50 UTC (31 minutes ago) Instrument Flight Rules
Wind Visibility Clouds Conditions
110° at 5 knots 10,000+ meters
  • Broken at 500' AGL
  • Broken at 1,000' AGL
  • Light Drizzle
Temperatures Readings
Current 12°C / 54°F
Dewpoint 11°C / 52°F
Humidity 94%
Altimeter 29.5" Hg
Pressure 999 hPa
Elevation 34
METAR ESPA 190850Z 11005KT 9999 -DZ BKN005 BKN010 12/11 Q0999
Observed Flight Rules
Sep-19 @ 08:50 UTC
(31 minutes ago)
IFR
Wind Visibility
110° at 5 knots 10,000+ meters
Clouds
  • Broken at 500' AGL
  • Broken at 1,000' AGL
Conditions
  • Light Drizzle
Temperature Dewpoint
12°C / 54°F 11°C / 52°F
Humidity Altimeter Pressure
94% 29.5" Hg 999 hPa